Date,TemperatureHighF,TemperatureAvgF,TemperatureLowF,DewpointHighF,DewpointAvgF,DewpointLowF,HumidityHigh,HumidityAvg,HumidityLow,PressureMaxIn,PressureMinIn,WindSpeedMaxMPH,WindSpeedAvgMPH,GustSpeedMaxMPH,PrecipitationSumIn
2013-3-1,31,29,27,26,25,23,91,84,77,30.42,30.28,9,6,14,0.01
2013-3-2,30,25,17,23,18,14,88,75,62,30.49,30.35,10,4,16,0.00
2013-3-3,41,27,20,26,20,16,87,74,50,30.36,30.05,7,3,10,0.09
2013-3-4,51,44,36,35,33,30,79,65,54,30.02,29.78,9,5,13,0.00
2013-3-5,36,33,30,32,25,20,93,72,60,30.43,30.01,17,11,32,0.01
2013-3-6,33,28,22,23,21,18,84,72,64,30.56,30.43,12,4,17,0.00
2013-3-7,46,35,22,32,26,18,87,70,57,30.48,30.31,9,5,13,0.00
2013-3-8,52,43,35,36,33,28,83,68,55,30.39,30.22,8,5,13,0.00
2013-3-9,65,62,56,55,50,43,93,67,49,29.87,29.76,12,8,19,0.52
2013-3-10,57,47,32,55,45,29,95,91,79,29.95,29.66,13,8,18,0.60
2013-3-11,37,31,28,29,25,-100,90,80,66,30.13,29.91,12,7,21,0.00
2013-3-12,48,35,29,32,26,23,81,68,44,30.43,30.13,14,5,22,0.00
2013-3-13,43,34,26,25,21,-100,77,63,45,30.61,30.43,11,4,16,0.00
2013-3-14,69,48,31,45,32,24,74,55,39,30.49,30.16,17,7,23,0.00
2013-3-15,72,67,64,51,50,50,60,55,47,29.77,29.75,12,10,17,0.00
2013-3-16,64,47,38,50,38,-100,88,74,59,30.16,29.75,15,8,23,0.00
2013-3-17,39,35,34,33,32,29,93,86,76,30.17,29.87,13,8,17,0.21
2013-3-18,52,41,35,38,32,24,96,74,39,30.17,29.85,15,6,23,0.01
2013-3-19,40,37,35,35,34,32,92,88,80,30.36,30.33,7,3,9,0.00
2013-3-20,36,32,25,33,18,10,95,60,33,30.48,30.28,14,7,21,0.00
2013-3-21,31,25,22,16,14,11,73,62,51,30.28,30.16,8,3,9,0.00
2013-3-22,36,35,35,34,34,32,95,93,90,30.14,30.08,5,3,8,0.02
2013-3-23,44,37,33,36,32,29,95,82,60,30.15,29.98,10,6,15,0.36
2013-3-24,34,31,28,32,28,-100,96,92,82,30.16,29.80,16,11,23,0.17
2013-3-25,33,29,23,28,24,20,90,82,74,30.43,30.13,13,8,18,0.01
2013-3-26,40,31,21,26,23,18,91,73,54,30.54,30.43,7,3,10,0.02
2013-3-27,47,37,25,34,28,22,89,71,54,30.49,30.35,8,3,11,0.00
2013-3-28,64,51,41,43,38,32,75,61,43,30.38,30.23,7,4,10,0.00
2013-3-29,66,53,40,47,41,37,90,65,35,30.32,30.22,8,4,11,0.09
2013-3-30,57,51,46,52,46,38,94,83,62,30.23,29.97,10,4,19,0.26
2013-3-31,68,53,42,50,42,33,97,69,39,30.06,29.99,12,4,16,0.01